createdAt,value
2022-12-18T00:01:24.854Z,97204.56
2022-12-18T00:03:51.476Z,97207.84
2022-12-18T00:06:18.075Z,97210.97
2022-12-18T00:08:44.430Z,97212.72
2022-12-18T00:11:10.827Z,97212.34
2022-12-18T00:13:37.565Z,97215.66
2022-12-18T00:16:04.260Z,97217.06
2022-12-18T00:18:30.688Z,97220.16
2022-12-18T00:20:57.074Z,97214.97
2022-12-18T00:23:23.461Z,97219.84
2022-12-18T00:25:49.856Z,97218.03
2022-12-18T00:28:16.238Z,97215.22
2022-12-18T00:30:42.619Z,97212.53
2022-12-18T00:33:08.973Z,97217.44
2022-12-18T00:35:35.358Z,97228.31
2022-12-18T00:38:01.723Z,97231.09
2022-12-18T00:40:28.054Z,97236.81
2022-12-18T00:42:54.451Z,97243.41
2022-12-18T00:45:20.791Z,97238.31
2022-12-18T00:47:47.146Z,97237.31
2022-12-18T00:50:13.543Z,97227.13
2022-12-18T00:52:39.911Z,97232.31
2022-12-18T00:55:06.683Z,97241.47
2022-12-18T00:57:33.216Z,97235.31
2022-12-18T00:59:59.567Z,97242.25
2022-12-18T01:02:26.010Z,97244.38
2022-12-18T01:04:52.460Z,97238.00
2022-12-18T01:07:18.824Z,97240.97
2022-12-18T01:09:45.382Z,97237.16
2022-12-18T01:12:11.755Z,97247.19
2022-12-18T01:14:38.166Z,97249.56
2022-12-18T01:17:04.503Z,97261.09
2022-12-18T01:19:30.891Z,97259.66
2022-12-18T01:21:57.249Z,97268.59
2022-12-18T01:24:23.605Z,97265.63
2022-12-18T01:26:49.982Z,97257.84
2022-12-18T01:29:16.315Z,97259.91
2022-12-18T01:31:42.731Z,97269.31
2022-12-18T01:34:09.194Z,97266.38
2022-12-18T01:36:35.552Z,97272.13
2022-12-18T01:39:01.889Z,97269.16
2022-12-18T01:41:28.285Z,97275.13
2022-12-18T01:43:54.689Z,97280.19
2022-12-18T01:46:21.098Z,97286.88
2022-12-18T01:48:47.479Z,97284.88
2022-12-18T01:51:13.809Z,97293.44
2022-12-18T01:53:40.601Z,97294.41
2022-12-18T01:56:07.206Z,97295.19
2022-12-18T01:58:33.533Z,97289.13
2022-12-18T02:00:59.880Z,97301.81
2022-12-18T02:03:26.392Z,97295.84
2022-12-18T02:05:52.900Z,97299.66
2022-12-18T02:08:19.245Z,97304.09
2022-12-18T02:10:45.634Z,97306.66
2022-12-18T02:13:11.999Z,97307.44
2022-12-18T02:15:38.350Z,97307.75
2022-12-18T02:18:04.715Z,97302.63
2022-12-18T02:20:31.041Z,97305.28
2022-12-18T02:22:57.391Z,97314.63
2022-12-18T02:25:23.740Z,97310.50
2022-12-18T02:27:50.078Z,97315.97
2022-12-18T02:30:16.596Z,97304.88
2022-12-18T02:32:42.968Z,97305.03
2022-12-18T02:35:09.319Z,97308.84
2022-12-18T02:37:35.686Z,97320.28
2022-12-18T02:40:02.107Z,97319.00
2022-12-18T02:42:28.474Z,97318.16
2022-12-18T02:44:54.907Z,97317.13
2022-12-18T02:47:21.293Z,97318.88
2022-12-18T02:49:47.610Z,97316.59
2022-12-18T02:52:13.954Z,97325.94
2022-12-18T02:54:40.389Z,97324.28
2022-12-18T02:57:06.816Z,97331.72
2022-12-18T02:59:33.178Z,97328.78
2022-12-18T03:02:00.103Z,97334.84
2022-12-18T03:04:26.615Z,97333.00
2022-12-18T03:06:52.959Z,97329.59
2022-12-18T03:09:19.345Z,97330.25
2022-12-18T03:11:45.699Z,97326.88
2022-12-18T03:14:12.075Z,97327.53
2022-12-18T03:16:38.504Z,97321.91
2022-12-18T03:19:04.883Z,97322.91
2022-12-18T03:21:31.219Z,97331.50
2022-12-18T03:23:57.591Z,97326.97
2022-12-18T03:26:23.927Z,97326.25
2022-12-18T03:28:50.258Z,97326.91
2022-12-18T03:31:16.618Z,97327.28
2022-12-18T03:33:43.115Z,97323.69
2022-12-18T03:36:09.594Z,97324.59
2022-12-18T03:38:35.957Z,97325.66
2022-12-18T03:41:02.354Z,97323.66
2022-12-18T03:43:28.737Z,97316.59
2022-12-18T03:45:55.131Z,97317.09
2022-12-18T03:48:21.549Z,97327.34
2022-12-18T03:50:47.867Z,97327.72
2022-12-18T03:53:14.247Z,97328.09
2022-12-18T03:55:40.607Z,97321.69
2022-12-18T03:58:06.967Z,97326.81
2022-12-18T04:00:33.343Z,97330.91
2022-12-18T04:02:59.680Z,97328.97
2022-12-18T04:05:26.018Z,97338.78
2022-12-18T04:07:52.438Z,97330.56
2022-12-18T04:10:18.773Z,97329.81
2022-12-18T04:12:45.115Z,97332.22
2022-12-18T04:15:11.610Z,97327.72
2022-12-18T04:17:37.944Z,97339.34
2022-12-18T04:20:04.268Z,97338.78
2022-12-18T04:22:30.689Z,97345.63
2022-12-18T04:24:56.997Z,97339.03
2022-12-18T04:27:23.411Z,97345.41
2022-12-18T04:29:49.780Z,97335.84
2022-12-18T04:32:16.097Z,97338.53
2022-12-18T04:34:42.428Z,97335.19
2022-12-18T04:37:08.759Z,97340.69
2022-12-18T04:39:35.062Z,97340.13
2022-12-18T04:42:01.400Z,97354.00
2022-12-18T04:44:27.755Z,97357.81
2022-12-18T04:46:54.105Z,97353.09
2022-12-18T04:49:20.919Z,97359.28
2022-12-18T04:51:47.277Z,97353.72
2022-12-18T04:54:13.607Z,97358.50
2022-12-18T04:56:39.939Z,97359.28
2022-12-18T04:59:06.295Z,97361.00
2022-12-18T05:01:34.801Z,97352.41
2022-12-18T05:04:01.643Z,97361.19
2022-12-18T05:06:28.076Z,97361.81
2022-12-18T05:08:54.408Z,97362.06
2022-12-18T05:11:20.740Z,97363.13
2022-12-18T05:13:47.133Z,97359.56
2022-12-18T05:16:13.566Z,97365.25
2022-12-18T05:18:39.916Z,97360.63
2022-12-18T05:21:06.257Z,97363.47
2022-12-18T05:23:32.599Z,97364.53
2022-12-18T05:25:58.981Z,97373.84
2022-12-18T05:28:25.374Z,97377.31
2022-12-18T05:30:51.753Z,97378.13
2022-12-18T05:33:18.160Z,97375.88
2022-12-18T05:35:44.505Z,97376.19
2022-12-18T05:38:10.857Z,97377.16
2022-12-18T05:40:37.222Z,97375.34
2022-12-18T05:43:03.578Z,97379.22
2022-12-18T05:45:29.900Z,97379.31
2022-12-18T05:47:56.292Z,97371.44
2022-12-18T05:50:23.468Z,97369.59
2022-12-18T05:52:50.474Z,97372.31
2022-12-18T05:55:16.851Z,97372.19
2022-12-18T05:57:43.207Z,97375.94
2022-12-18T06:00:09.532Z,97379.16
2022-12-18T06:02:35.939Z,97377.16
2022-12-18T06:05:02.388Z,97384.84
2022-12-18T06:07:28.719Z,97382.13
2022-12-18T06:09:55.051Z,97389.50
2022-12-18T06:12:21.469Z,97386.50
2022-12-18T06:14:47.908Z,97391.63
2022-12-18T06:17:14.240Z,97392.06
2022-12-18T06:19:40.669Z,97391.91
2022-12-18T06:22:06.999Z,97401.13
2022-12-18T06:24:33.305Z,97394.00
2022-12-18T06:26:59.659Z,97405.00
2022-12-18T06:29:25.977Z,97397.41
2022-12-18T06:31:52.377Z,97406.50
2022-12-18T06:34:18.757Z,97412.13
2022-12-18T06:36:45.090Z,97408.75
2022-12-18T06:39:11.431Z,97419.81
2022-12-18T06:41:37.932Z,97418.81
2022-12-18T06:44:05.417Z,97424.72
2022-12-18T06:46:31.728Z,97423.97
2022-12-18T06:48:58.107Z,97421.41
2022-12-18T06:51:24.443Z,97436.56
2022-12-18T06:53:50.766Z,97435.06
2022-12-18T06:56:17.374Z,97429.81
2022-12-18T06:58:43.766Z,97436.13
2022-12-18T07:01:10.246Z,97436.72
2022-12-18T07:03:36.954Z,97434.78
2022-12-18T07:06:03.806Z,97442.78
2022-12-18T07:08:30.162Z,97444.81
2022-12-18T07:10:56.680Z,97449.16
2022-12-18T07:13:23.032Z,97451.38
2022-12-18T07:15:49.595Z,97455.16
2022-12-18T07:18:16.104Z,97452.06
2022-12-18T07:20:42.409Z,97454.97
2022-12-18T07:23:08.713Z,97451.56
2022-12-18T07:25:35.065Z,97458.31
2022-12-18T07:28:01.670Z,97454.41
2022-12-18T07:30:27.964Z,97455.91
2022-12-18T07:32:54.378Z,97448.81
2022-12-18T07:35:24.770Z,97463.03
2022-12-18T07:37:51.594Z,97464.09
2022-12-18T07:40:17.935Z,97463.00
2022-12-18T07:42:44.236Z,97476.72
2022-12-18T07:45:10.532Z,97476.78
2022-12-18T07:47:36.877Z,97472.56
2022-12-18T07:50:03.174Z,97481.72
2022-12-18T07:52:29.479Z,97476.66
2022-12-18T07:54:55.837Z,97480.41
2022-12-18T07:57:48.864Z,97483.75
2022-12-18T08:00:08.488Z,97483.44
2022-12-18T08:02:34.887Z,97483.59
2022-12-18T08:05:01.907Z,97484.94
2022-12-18T08:07:28.263Z,97487.16
2022-12-18T08:09:54.567Z,97489.16
2022-12-18T08:12:20.882Z,97493.81
2022-12-18T08:14:47.212Z,97488.06
2022-12-18T08:17:13.539Z,97496.97
2022-12-18T08:19:39.838Z,97492.69
2022-12-18T08:22:06.175Z,97490.38
2022-12-18T08:24:35.510Z,97491.19
2022-12-18T08:27:31.662Z,97487.09
2022-12-18T08:29:48.206Z,97490.47
2022-12-18T08:32:14.629Z,97491.53
2022-12-18T08:34:40.968Z,97485.75
2022-12-18T08:37:07.293Z,97483.63
2022-12-18T08:39:33.619Z,97492.50
2022-12-18T08:42:00.862Z,97492.22
2022-12-18T08:44:29.451Z,97490.69
2022-12-18T08:46:55.776Z,97495.19
2022-12-18T08:49:22.083Z,97503.22
2022-12-18T08:51:48.429Z,97489.78
2022-12-18T08:54:14.795Z,97488.25
2022-12-18T08:56:41.110Z,97491.47
2022-12-18T08:59:07.444Z,97485.31
2022-12-18T09:01:34.011Z,97485.00
2022-12-18T09:04:01.743Z,97488.47
2022-12-18T09:06:28.085Z,97489.63
2022-12-18T09:08:54.398Z,97497.81
2022-12-18T09:11:20.735Z,97497.50
2022-12-18T09:13:47.057Z,97494.75
2022-12-18T09:16:13.375Z,97491.59
2022-12-18T09:18:40.058Z,97497.13
2022-12-18T09:21:06.564Z,97504.47
2022-12-18T09:23:32.917Z,97498.09
2022-12-18T09:26:00.310Z,97494.69
2022-12-18T09:28:26.742Z,97499.63
2022-12-18T09:30:53.112Z,97506.81
2022-12-18T09:33:19.530Z,97501.56
2022-12-18T09:35:45.959Z,97509.41
2022-12-18T09:38:12.307Z,97505.53
2022-12-18T09:40:38.697Z,97498.53
2022-12-18T09:43:05.087Z,97503.44
2022-12-18T09:45:33.710Z,97514.91
2022-12-18T09:48:00.081Z,97513.31
2022-12-18T09:50:26.504Z,97510.09
2022-12-18T09:52:52.867Z,97514.34
2022-12-18T09:55:19.239Z,97511.97
2022-12-18T09:57:45.624Z,97514.03
2022-12-18T10:00:11.957Z,97510.72
2022-12-18T10:02:38.429Z,97524.59
2022-12-18T10:05:04.899Z,97517.06
2022-12-18T10:07:31.247Z,97508.25
2022-12-18T10:09:57.594Z,97507.31
2022-12-18T10:12:24.027Z,97504.53
2022-12-18T10:14:50.416Z,97500.88
2022-12-18T10:17:16.812Z,97496.69
2022-12-18T10:19:44.196Z,97501.34
2022-12-18T10:22:10.566Z,97488.88
2022-12-18T10:24:36.939Z,97485.53
2022-12-18T10:27:03.415Z,97487.94
2022-12-18T10:29:29.767Z,97475.28
2022-12-18T10:31:56.151Z,97483.91
2022-12-18T10:34:22.583Z,97486.09
2022-12-18T10:36:49.215Z,97483.13
2022-12-18T10:39:15.673Z,97487.09
2022-12-18T10:41:42.090Z,97482.56
2022-12-18T10:44:08.448Z,97482.31
2022-12-18T10:46:34.873Z,97487.63
2022-12-18T10:49:01.298Z,97487.03
2022-12-18T10:51:27.683Z,97480.44
2022-12-18T10:53:57.840Z,97489.03
2022-12-18T10:56:24.244Z,97487.28
2022-12-18T10:58:50.654Z,97485.59
2022-12-18T11:01:17.159Z,97490.81
2022-12-18T11:03:43.795Z,97482.91
2022-12-18T11:06:10.308Z,97487.63
2022-12-18T11:08:38.507Z,97490.25
2022-12-18T11:11:06.807Z,97492.47
2022-12-18T11:13:33.437Z,97486.84
2022-12-18T11:15:59.835Z,97490.81
2022-12-18T11:18:26.279Z,97477.28
2022-12-18T11:20:58.650Z,97472.06
2022-12-18T11:23:25.339Z,97476.59
2022-12-18T11:25:51.724Z,97478.88
2022-12-18T11:28:26.883Z,97475.34
2022-12-18T11:30:53.279Z,97471.38
2022-12-18T11:33:19.683Z,97476.59
2022-12-18T11:35:46.039Z,97469.72
2022-12-18T11:38:12.409Z,97466.41
2022-12-18T11:40:41.308Z,97467.84
2022-12-18T11:43:08.024Z,97463.66
2022-12-18T11:45:34.919Z,97468.28
2022-12-18T11:48:02.300Z,97463.16
2022-12-18T11:50:28.818Z,97456.59
2022-12-18T11:53:02.850Z,97460.03
2022-12-18T11:55:32.170Z,97450.59
2022-12-18T11:57:58.529Z,97446.22
2022-12-18T12:00:24.899Z,97444.50
2022-12-18T12:02:51.329Z,97440.47
2022-12-18T12:05:17.812Z,97444.78
2022-12-18T12:07:44.251Z,97437.94
2022-12-18T12:10:10.603Z,97435.28
2022-12-18T12:12:41.815Z,97435.06
2022-12-18T12:15:11.547Z,97429.09
2022-12-18T12:17:37.957Z,97435.72
2022-12-18T12:20:04.413Z,97434.97
2022-12-18T12:22:30.824Z,97426.13
2022-12-18T12:24:57.204Z,97419.22
2022-12-18T12:27:23.721Z,97416.50
2022-12-18T12:29:50.131Z,97415.44
2022-12-18T12:32:18.607Z,97422.78
2022-12-18T12:34:45.168Z,97414.50
2022-12-18T12:37:11.588Z,97409.66
2022-12-18T12:39:37.981Z,97418.50
2022-12-18T12:42:06.672Z,97410.06
2022-12-18T12:44:33.052Z,97403.88
2022-12-18T12:46:59.529Z,97407.00
2022-12-18T12:49:26.112Z,97402.75
2022-12-18T12:51:52.626Z,97409.50
2022-12-18T12:54:19.092Z,97404.66
2022-12-18T12:56:45.616Z,97407.53
2022-12-18T12:59:12.037Z,97400.78
2022-12-18T13:01:38.601Z,97398.19
2022-12-18T13:04:05.290Z,97392.94
2022-12-18T13:06:31.664Z,97398.81
2022-12-18T13:08:59.787Z,97401.75
2022-12-18T13:11:27.492Z,97394.44
2022-12-18T13:13:54.187Z,97381.81
2022-12-18T13:16:21.129Z,97383.88
2022-12-18T13:18:47.671Z,97384.78
2022-12-18T13:21:15.182Z,97389.75
2022-12-18T13:23:47.684Z,97395.66
2022-12-18T13:26:14.040Z,97387.63
2022-12-18T13:28:41.656Z,97385.56
2022-12-18T13:31:08.476Z,97386.28
2022-12-18T13:33:35.007Z,97384.47
2022-12-18T13:36:01.761Z,97383.69
2022-12-18T13:38:29.470Z,97381.31
2022-12-18T13:40:56.265Z,97387.09
2022-12-18T13:43:22.647Z,97377.03
2022-12-18T13:45:49.027Z,97383.75
2022-12-18T13:48:15.408Z,97377.13
2022-12-18T13:50:42.818Z,97381.25
2022-12-18T13:53:09.223Z,97377.31
2022-12-18T13:55:35.713Z,97385.78
2022-12-18T13:58:02.097Z,97384.56
2022-12-18T14:00:28.692Z,97386.72
2022-12-18T14:02:55.128Z,97377.56
2022-12-18T14:05:21.575Z,97384.69
2022-12-18T14:07:51.298Z,97375.78
2022-12-18T14:13:04.436Z,97374.66
2022-12-18T14:15:32.338Z,97376.72
2022-12-18T14:17:59.587Z,97372.34
2022-12-18T14:20:25.950Z,97371.19
2022-12-18T14:22:52.922Z,97378.56
2022-12-18T14:25:19.450Z,97370.16
2022-12-18T14:27:45.826Z,97374.88
2022-12-18T14:30:12.204Z,97377.44
2022-12-18T14:32:38.563Z,97384.28
2022-12-18T14:35:05.092Z,97382.66
2022-12-18T14:37:31.470Z,97386.44
2022-12-18T14:39:57.925Z,97392.28
2022-12-18T14:42:24.352Z,97384.38
2022-12-18T14:45:12.393Z,97388.66
2022-12-18T14:47:37.173Z,97383.66
2022-12-18T14:50:03.601Z,97393.75
2022-12-18T14:52:29.938Z,97386.22
2022-12-18T14:54:56.369Z,97394.72
2022-12-18T14:57:22.755Z,97387.16
2022-12-18T14:59:49.150Z,97378.44
2022-12-18T15:02:15.724Z,97382.78
2022-12-18T15:04:44.201Z,97386.47
2022-12-18T15:07:11.035Z,97383.22
2022-12-18T15:09:37.479Z,97383.75
2022-12-18T15:12:03.894Z,97386.13
2022-12-18T15:14:30.244Z,97385.31
2022-12-18T15:16:56.680Z,97381.50
2022-12-18T15:19:23.064Z,97389.66
2022-12-18T15:21:49.397Z,97388.31
2022-12-18T15:24:15.790Z,97388.16
2022-12-18T15:26:42.148Z,97390.72
2022-12-18T15:29:12.745Z,97392.25
2022-12-18T15:31:42.055Z,97389.94
2022-12-18T15:34:08.435Z,97396.19
2022-12-18T15:36:34.763Z,97398.16
2022-12-18T15:39:05.350Z,97400.66
2022-12-18T15:41:33.100Z,97406.38
2022-12-18T15:44:01.640Z,97400.03
2022-12-18T15:46:28.110Z,97402.75
2022-12-18T15:49:01.202Z,97407.31
2022-12-18T15:51:28.421Z,97395.78
2022-12-18T15:53:54.805Z,97392.22
2022-12-18T15:56:21.165Z,97391.16
2022-12-18T15:58:47.531Z,97393.72
2022-12-18T16:01:14.176Z,97398.06
2022-12-18T16:03:41.092Z,97402.56
2022-12-18T16:06:07.766Z,97402.41
2022-12-18T16:08:34.385Z,97393.31
2022-12-18T16:11:00.728Z,97399.09
2022-12-18T16:13:27.169Z,97401.72
2022-12-18T16:15:53.649Z,97397.25
2022-12-18T16:18:23.007Z,97406.19
2022-12-18T16:20:49.403Z,97397.84
2022-12-18T16:23:15.739Z,97398.69
2022-12-18T16:25:42.091Z,97402.97
2022-12-18T16:28:08.496Z,97398.22
2022-12-18T16:30:38.580Z,97403.59
2022-12-18T16:33:07.618Z,97405.28
2022-12-18T16:35:34.182Z,97395.69
2022-12-18T16:38:03.607Z,97395.03
2022-12-18T16:40:29.954Z,97402.50
2022-12-18T16:42:56.312Z,97397.19
2022-12-18T16:45:22.711Z,97398.75
2022-12-18T16:47:51.376Z,97401.22
2022-12-18T16:50:17.767Z,97396.84
2022-12-18T16:52:44.127Z,97401.72
2022-12-18T16:55:10.478Z,97393.78
2022-12-18T16:57:36.851Z,97396.09
2022-12-18T17:00:05.609Z,97395.88
2022-12-18T17:02:32.532Z,97398.50
2022-12-18T17:04:59.162Z,97395.66
2022-12-18T17:07:25.554Z,97400.16
2022-12-18T17:09:52.019Z,97406.56
2022-12-18T17:12:18.469Z,97396.88
2022-12-18T17:14:44.928Z,97399.34
2022-12-18T17:17:26.662Z,97390.69
2022-12-18T17:19:53.100Z,97397.56
2022-12-18T17:22:19.442Z,97393.00
2022-12-18T17:24:45.884Z,97379.00
2022-12-18T17:27:12.281Z,97384.84
2022-12-18T17:29:43.844Z,97386.28
2022-12-18T17:32:15.082Z,97400.38
2022-12-18T17:34:41.422Z,97389.84
2022-12-18T17:37:07.808Z,97391.81
2022-12-18T17:39:34.366Z,97402.31
2022-12-18T17:42:00.772Z,97405.09
2022-12-18T17:44:27.173Z,97391.94
2022-12-18T17:46:53.679Z,97391.94
2022-12-18T17:49:20.126Z,97396.41
2022-12-18T17:51:50.521Z,97401.41
2022-12-18T17:54:32.160Z,97396.56
2022-12-18T17:56:58.587Z,97391.03
2022-12-18T17:59:24.959Z,97391.19
2022-12-18T18:01:51.473Z,97405.66
2022-12-18T18:04:18.558Z,97395.28
2022-12-18T18:06:44.983Z,97387.88
2022-12-18T18:09:16.685Z,97389.31
2022-12-18T18:11:43.420Z,97388.72
2022-12-18T18:14:10.049Z,97379.19
2022-12-18T18:16:36.591Z,97383.78
2022-12-18T18:19:03.047Z,97384.69
2022-12-18T18:21:29.406Z,97381.50
2022-12-18T18:23:56.465Z,97389.84
2022-12-18T18:26:22.808Z,97400.50
2022-12-18T18:28:52.455Z,97402.28
2022-12-18T18:31:19.237Z,97402.28
2022-12-18T18:33:45.618Z,97401.03
2022-12-18T18:36:11.974Z,97404.31
2022-12-18T18:38:38.464Z,97404.56
2022-12-18T18:41:04.836Z,97409.41
2022-12-18T18:43:32.711Z,97415.16
2022-12-18T18:45:59.160Z,97426.44
2022-12-18T18:48:25.554Z,97413.25
2022-12-18T18:50:54.375Z,97411.44
2022-12-18T18:53:20.747Z,97414.72
2022-12-18T18:55:59.090Z,97408.22
2022-12-18T18:58:33.603Z,97406.69
2022-12-18T19:01:00.104Z,97410.06
2022-12-18T19:03:26.748Z,97414.53
2022-12-18T19:05:53.233Z,97403.81
2022-12-18T19:08:19.584Z,97408.91
2022-12-18T19:10:45.932Z,97408.16
2022-12-18T19:13:12.319Z,97401.06
2022-12-18T19:15:38.695Z,97400.06
2022-12-18T19:18:05.097Z,97402.00
2022-12-18T19:20:31.713Z,97406.91
2022-12-18T19:22:58.092Z,97410.78
2022-12-18T19:25:30.697Z,97391.53
2022-12-18T19:28:07.172Z,97397.84
2022-12-18T19:30:41.686Z,97389.13
2022-12-18T19:33:34.038Z,97386.78
2022-12-18T19:35:54.548Z,97381.00
2022-12-18T19:38:21.085Z,97376.34
2022-12-18T19:40:47.520Z,97386.34
2022-12-18T19:43:13.929Z,97384.22
2022-12-18T19:45:40.398Z,97385.81
2022-12-18T19:48:06.757Z,97397.81
2022-12-18T19:50:33.152Z,97400.00
2022-12-18T19:53:00.783Z,97391.63
2022-12-18T19:55:27.363Z,97402.66
2022-12-18T19:57:59.015Z,97406.03
2022-12-18T20:00:25.665Z,97404.88
2022-12-18T20:02:55.359Z,97398.13
2022-12-18T20:05:31.938Z,97407.50
2022-12-18T20:07:59.004Z,97394.81
2022-12-18T20:10:31.580Z,97405.72
2022-12-18T20:12:58.027Z,97405.47
2022-12-18T20:15:25.573Z,97398.94
2022-12-18T20:17:59.772Z,97402.38
2022-12-18T20:20:28.726Z,97392.16
2022-12-18T20:23:02.462Z,97388.44
2022-12-18T20:25:29.068Z,97384.94
2022-12-18T20:28:20.410Z,97387.00
2022-12-18T20:30:48.120Z,97384.00
2022-12-18T20:33:14.456Z,97395.44
2022-12-18T20:35:40.791Z,97386.16
2022-12-18T20:38:07.974Z,97382.03
2022-12-18T20:40:35.395Z,97390.06
2022-12-18T20:43:01.788Z,97386.00
2022-12-18T20:45:28.181Z,97388.28
2022-12-18T20:47:54.550Z,97382.69
2022-12-18T20:50:20.892Z,97373.28
2022-12-18T20:52:47.275Z,97373.84
2022-12-18T20:55:13.616Z,97377.38
2022-12-18T20:57:39.970Z,97382.16
2022-12-18T21:00:06.336Z,97378.22
2022-12-18T21:02:32.878Z,97371.88
2022-12-18T21:04:59.359Z,97373.50
2022-12-18T21:07:25.795Z,97366.69
2022-12-18T21:09:52.154Z,97369.31
2022-12-18T21:12:18.508Z,97368.28
2022-12-18T21:14:44.904Z,97368.69
2022-12-18T21:17:11.404Z,97366.09
2022-12-18T21:19:37.782Z,97377.53
2022-12-18T21:22:04.525Z,97380.69
2022-12-18T21:24:32.999Z,97370.16
2022-12-18T21:26:59.490Z,97363.44
2022-12-18T21:29:26.095Z,97354.91
2022-12-18T21:31:52.427Z,97364.53
2022-12-18T21:34:18.792Z,97363.19
2022-12-18T21:36:45.146Z,97364.28
2022-12-18T21:39:12.536Z,97369.50
2022-12-18T21:41:42.297Z,97367.09
2022-12-18T21:44:08.973Z,97372.97
2022-12-18T21:46:35.398Z,97363.63
2022-12-18T21:49:01.942Z,97370.19
2022-12-18T21:51:28.327Z,97368.94
2022-12-18T21:53:54.682Z,97372.53
2022-12-18T21:56:21.030Z,97367.06
2022-12-18T21:58:56.800Z,97374.59
2022-12-18T22:01:23.594Z,97362.59
2022-12-18T22:03:50.113Z,97368.00
2022-12-18T22:06:19.622Z,97365.69
2022-12-18T22:08:45.991Z,97363.16
2022-12-18T22:11:12.422Z,97362.84
2022-12-18T22:13:39.012Z,97369.13
2022-12-18T22:16:05.390Z,97379.91
2022-12-18T22:18:31.860Z,97384.00
2022-12-18T22:20:58.218Z,97382.63
2022-12-18T22:23:24.547Z,97382.66
2022-12-18T22:25:50.899Z,97381.06
2022-12-18T22:28:17.216Z,97388.47
2022-12-18T22:30:43.568Z,97378.75
2022-12-18T22:33:09.979Z,97383.63
2022-12-18T22:35:36.336Z,97386.84
2022-12-18T22:38:02.667Z,97383.69
2022-12-18T22:40:29.034Z,97377.06
2022-12-18T22:42:55.554Z,97387.84
2022-12-18T22:45:21.912Z,97380.72
2022-12-18T22:47:48.287Z,97388.31
2022-12-18T22:50:14.624Z,97381.88
2022-12-18T22:52:40.992Z,97377.31
2022-12-18T22:55:07.360Z,97371.56
2022-12-18T22:57:33.757Z,97383.75
2022-12-18T23:00:01.012Z,97378.56
2022-12-18T23:02:27.524Z,97367.03
2022-12-18T23:04:53.949Z,97373.19
2022-12-18T23:07:20.301Z,97378.38
2022-12-18T23:09:46.775Z,97373.13
2022-12-18T23:12:14.679Z,97377.69
2022-12-18T23:14:41.032Z,97384.00
2022-12-18T23:17:07.421Z,97395.81
2022-12-18T23:19:33.743Z,97388.97
2022-12-18T23:22:00.096Z,97387.38
2022-12-18T23:24:26.463Z,97380.19
2022-12-18T23:26:52.793Z,97372.94
2022-12-18T23:29:19.130Z,97364.53
2022-12-18T23:31:45.585Z,97367.03
2022-12-18T23:34:11.960Z,97364.78
2022-12-18T23:36:46.307Z,97371.84
2022-12-18T23:39:28.565Z,97371.06
2022-12-18T23:41:56.294Z,97368.97
2022-12-18T23:44:22.696Z,97364.75
2022-12-18T23:46:49.131Z,97363.00
2022-12-18T23:49:15.577Z,97355.91
2022-12-18T23:51:41.949Z,97362.25
2022-12-18T23:54:09.746Z,97361.09
2022-12-18T23:56:36.122Z,97352.97
2022-12-18T23:59:02.493Z,97357.81
